Helga — ERBD — position and weather

sailwx.info

Track history (hours):
 
Tides and Currents Weather Stations Pressure Air Temp Water Temp Dewpoint Dewpoint Depression Visibility Wind Speed Wind Dir Waves Ship Positions

Helga

Last reported at 2018-Jul-22 13:10 UTC. Time now 2018-Jul-23 06:09 UTC.
Position N 45°12' E 036°28'.

Length 79 m; draft 3.4 m.

Type: Ship. MMSI: 214180204.

Date/timePositionNaut miles runAvg speedWind from/ knotsBaromVisibWave heightAir tempDewpointWater temp
2018-Jul-22 13:10N 45°12' E 036°28'1 5.7
2018-Jul-22 13:00N 45°12' E 036°28'3 6.9
2018-Jul-22 12:30N 45°16' E 036°28'3 5.8
2018-Jul-22 12:00N 45°18' E 036°30'3 6.5
2018-Jul-22 11:30N 45°19' E 036°35'4 7.1
2018-Jul-22 11:00N 45°21' E 036°39'2 4.8
2018-Jul-22 10:30N 45°23' E 036°41'3 6.1
2018-Jul-22 10:00N 45°26' E 036°43'3 3.7
2018-Jul-22 09:15N 45°28' E 036°44'0 0.1
2018-Jul-22 08:54N 45°28' E 036°44'0 0.0
2018-Jul-22 08:28N 45°28' E 036°44'0 0.0
2018-Jul-22 07:57N 45°28' E 036°44'  
Track history (hours):
 
Tides and Currents Weather Stations Pressure Air Temp Water Temp Dewpoint Dewpoint Depression Visibility Wind Speed Wind Dir Waves Ship Positions

Helga

Last reported at 2018-Jul-22 13:10 UTC. Time now 2018-Jul-23 06:09 UTC.
Position N 45°12' E 036°28'.

Length 79 m; draft 3.4 m.

Type: Ship. MMSI: 214180204.

Date/timePositionNaut miles runAvg speedWind from/ knotsBaromVisibWave heightAir tempDewpointWater temp
2018-Jul-22 13:10N 45°12' E 036°28'1 5.7
2018-Jul-22 13:00N 45°12' E 036°28'3 6.9
2018-Jul-22 12:30N 45°16' E 036°28'3 5.8
2018-Jul-22 12:00N 45°18' E 036°30'3 6.5
2018-Jul-22 11:30N 45°19' E 036°35'4 7.1
2018-Jul-22 11:00N 45°21' E 036°39'2 4.8
2018-Jul-22 10:30N 45°23' E 036°41'3 6.1
2018-Jul-22 10:00N 45°26' E 036°43'3 3.7
2018-Jul-22 09:15N 45°28' E 036°44'0 0.1
2018-Jul-22 08:54N 45°28' E 036°44'0 0.0
2018-Jul-22 08:28N 45°28' E 036°44'0 0.0
2018-Jul-22 07:57N 45°28' E 036°44'  

Dump ship's entire track history